Lotheni — ZR8530 — position and weather

sailwx.info

Track history (hours):
 
Tides and Currents Weather Stations Pressure Air Temp Water Temp Dewpoint Dewpoint Depression Visibility Wind Speed Wind Dir Waves Ship Positions

Lotheni

Last reported at 2017-Aug-22 19:59 UTC. Time now 2017-Aug-22 20:26 UTC.
Position S 29°52' E 031°01'.

Type: Tug. MMSI: 601135800.

Date/timePositionNaut miles runAvg speedWind from/ knotsBaromVisibWave heightAir tempDewpointWater temp
2017-Aug-22 19:59S 29°52' E 031°01'1 2.2
2017-Aug-22 19:30S 29°52' E 031°02'1 1.7
2017-Aug-22 18:58S 29°52' E 031°03'0 0.0
2017-Aug-22 18:28S 29°52' E 031°03'0 0.0
2017-Aug-22 18:00S 29°52' E 031°03'1 1.7
2017-Aug-22 17:28S 29°52' E 031°02'0 0.3
2017-Aug-22 16:58S 29°52' E 031°02'0 0.0
2017-Aug-22 16:28S 29°52' E 031°02'0 0.0
2017-Aug-22 15:58S 29°52' E 031°02'1 3.0
2017-Aug-22 15:30S 29°52' E 031°03'1 2.1
2017-Aug-22 14:51S 29°52' E 031°02'0 0.0
2017-Aug-22 14:30S 29°52' E 031°02'0 0.0
2017-Aug-22 13:03S 29°52' E 031°02'0 0.0
2017-Aug-22 13:00S 29°52' E 031°02'2 1.2
2017-Aug-22 11:27S 29°53' E 031°00'2 4.0
2017-Aug-22 10:59S 29°52' E 031°02'0 0.0
2017-Aug-22 10:29S 29°52' E 031°02'0 0.0
2017-Aug-22 09:59S 29°52' E 031°02'0 0.0
2017-Aug-22 09:29S 29°52' E 031°02'0 0.0
2017-Aug-22 08:59S 29°52' E 031°02'0 0.0
2017-Aug-22 08:29S 29°52' E 031°02'1 2.4
2017-Aug-22 08:00S 29°53' E 031°03'0 0.5
2017-Aug-22 07:30S 29°53' E 031°03'1 2.5
2017-Aug-22 06:58S 29°52' E 031°02'0 0.0
2017-Aug-22 06:28S 29°52' E 031°02'1 2.1
2017-Aug-22 05:59S 29°53' E 031°02'0 0.1
2017-Aug-22 05:31S 29°53' E 031°02'1 1.5
2017-Aug-22 04:51S 29°52' E 031°02'0 0.0
2017-Aug-22 04:30S 29°52' E 031°02'0 0.0
2017-Aug-22 03:03S 29°52' E 031°02'0 0.0
2017-Aug-22 02:48S 29°52' E 031°02'0 0.0
2017-Aug-22 02:18S 29°52' E 031°02'0 0.0
2017-Aug-22 01:57S 29°52' E 031°02'1 2.6
2017-Aug-22 01:25S 29°53' E 031°02'0 0.0
2017-Aug-22 00:55S 29°53' E 031°02'1 2.3
2017-Aug-22 00:19S 29°52' E 031°02'0 0.0
2017-Aug-21 23:49S 29°52' E 031°02'0 0.0
2017-Aug-21 23:13S 29°52' E 031°02'0 0.0
2017-Aug-21 22:55S 29°52' E 031°02'0 0.0
2017-Aug-21 22:28S 29°52' E 031°02'0 0.0
2017-Aug-21 21:58S 29°52' E 031°02'0 0.0
2017-Aug-21 21:01S 29°52' E 031°02'0 0.0
2017-Aug-21 20:51S 29°52' E 031°02'1 4.2
2017-Aug-21 20:30S 29°53' E 031°03'0 0.0
2017-Aug-21 19:58S 29°53' E 031°03'1 2.5
2017-Aug-21 19:30S 29°52' E 031°03'1 1.2
2017-Aug-21 18:57S 29°52' E 031°03'0 0.0
2017-Aug-21 18:27S 29°52' E 031°03'0 0.9
2017-Aug-21 18:00S 29°53' E 031°03'0 0.3
2017-Aug-21 17:30S 29°53' E 031°03'0 0.2
2017-Aug-21 17:00S 29°53' E 031°03'1 1.4
2017-Aug-21 16:04S 29°52' E 031°02'0 0.0
2017-Aug-21 15:52S 29°52' E 031°02'0 0.0
2017-Aug-21 15:07S 29°52' E 031°02'0 0.0
2017-Aug-21 14:49S 29°52' E 031°02'1 4.8
2017-Aug-21 14:30S 29°53' E 031°00'0 0.8
2017-Aug-21 13:59S 29°53' E 031°00'2 3.4
2017-Aug-21 13:30S 29°52' E 031°02'1 2.1
2017-Aug-21 13:00S 29°52' E 031°03'1 1.6
2017-Aug-21 12:30S 29°52' E 031°02'1 1.3
2017-Aug-21 11:52S 29°52' E 031°02'0 0.0
2017-Aug-21 11:22S 29°52' E 031°02'0 0.0
2017-Aug-21 10:55S 29°52' E 031°02'0 0.0
2017-Aug-21 10:30S 29°52' E 031°02'1 1.6
2017-Aug-21 10:00S 29°53' E 031°02'0 0.2
2017-Aug-21 09:30S 29°52' E 031°02'0 0.3
2017-Aug-21 08:59S 29°53' E 031°02'0 0.8
2017-Aug-21 08:30S 29°52' E 031°02'1 1.2
2017-Aug-21 07:54S 29°52' E 031°03'1 1.8
2017-Aug-21 07:30S 29°52' E 031°03'3 2.5
2017-Aug-21 06:18S 29°53' E 031°00'1 2.5
2017-Aug-21 05:58S 29°52' E 031°01'2 4.3
2017-Aug-21 05:30S 29°53' E 031°03'1 1.1
2017-Aug-21 04:17S 29°52' E 031°02'0 0.0
2017-Aug-21 03:53S 29°52' E 031°02'0 0.0
2017-Aug-21 03:26S 29°52' E 031°02'0 0.0
2017-Aug-21 02:44S 29°52' E 031°02'0 1.9
2017-Aug-21 02:30S 29°52' E 031°01'2 3.1
2017-Aug-21 01:56S 29°53' E 030°60'1 1.6
2017-Aug-21 01:29S 29°53' E 031°00'2 4.0
2017-Aug-21 00:58S 29°52' E 031°03'0 0.0
2017-Aug-21 00:22S 29°52' E 031°03'0 0.0
2017-Aug-20 23:58S 29°52' E 031°03'0 0.0
2017-Aug-20 23:28S 29°52' E 031°03'0 0.0
2017-Aug-20 22:58S 29°52' E 031°03'0 0.7
2017-Aug-20 22:29S 29°53' E 031°03'0 0.6
2017-Aug-20 21:58S 29°52' E 031°03'0 0.0
2017-Aug-20 21:28S 29°52' E 031°03'1 2.2
2017-Aug-20 21:00S 29°53' E 031°02'0 0.2
2017-Aug-20 20:30S 29°53' E 031°02'0 0.2
2017-Aug-20 19:59S 29°53' E 031°02'0 0.1
2017-Aug-20 19:30S 29°53' E 031°02'1 1.4
2017-Aug-20 18:54S 29°52' E 031°02'0 0.9
2017-Aug-20 18:30S 29°52' E 031°02'0 0.6
2017-Aug-20 18:00S 29°52' E 031°02'1 1.6
2017-Aug-20 17:30S 29°53' E 031°03'1 2.5
2017-Aug-20 16:59S 29°52' E 031°02'0 0.0
2017-Aug-20 15:26S 29°52' E 031°02'1 2.1
2017-Aug-20 14:58S 29°52' E 031°03'0 0.1
2017-Aug-20 14:28S 29°52' E 031°03'0 0.4
2017-Aug-20 14:00S 29°53' E 031°03'0 0.2
2017-Aug-20 13:28S 29°52' E 031°03'0 0.1
2017-Aug-20 13:00S 29°52' E 031°03'1 2.3
2017-Aug-20 12:30S 29°53' E 031°02'1 1.7
2017-Aug-20 12:00S 29°53' E 031°02'1 1.3
2017-Aug-20 11:30S 29°52' E 031°02'0 0.8
2017-Aug-20 10:58S 29°52' E 031°02'0 0.0
2017-Aug-20 10:28S 29°52' E 031°02'0 0.0
2017-Aug-20 09:58S 29°52' E 031°02'2 4.3
2017-Aug-20 09:29S 29°53' E 031°00'0 0.4
2017-Aug-20 08:59S 29°53' E 031°00'0 0.2
2017-Aug-20 08:10S 29°53' E 030°60'0 0.0
2017-Aug-20 07:58S 29°53' E 030°60'0 0.0
2017-Aug-20 07:30S 29°53' E 030°60'2 4.2
2017-Aug-20 06:59S 29°52' E 031°02'0 0.0
2017-Aug-20 06:29S 29°52' E 031°02'0 0.0
2017-Aug-20 05:59S 29°52' E 031°02'0 0.0
2017-Aug-20 05:29S 29°52' E 031°02'0 0.0
2017-Aug-20 04:59S 29°52' E 031°02'0 0.1
2017-Aug-20 04:27S 29°52' E 031°02'0 0.0
2017-Aug-20 04:00S 29°52' E 031°02'0 0.0
2017-Aug-20 03:21S 29°52' E 031°02'1 1.5
2017-Aug-20 03:00S 29°52' E 031°02'0 0.9
2017-Aug-20 02:30S 29°53' E 031°01'0 0.1
2017-Aug-20 01:59S 29°53' E 031°01'0 0.0
2017-Aug-20 01:30S 29°53' E 031°01'0 1.0
2017-Aug-20 01:00S 29°52' E 031°02'1 0.3
2017-Aug-19 23:32S 29°52' E 031°02'0 0.0
2017-Aug-19 23:20S 29°52' E 031°02'0 0.0
2017-Aug-19 22:56S 29°52' E 031°02'0 0.0
2017-Aug-19 19:23S 29°52' E 031°02'0 0.0
2017-Aug-19 18:56S 29°52' E 031°02'0 0.0
2017-Aug-19 18:29S 29°52' E 031°02'1 2.8
2017-Aug-19 17:58S 29°53' E 031°03'1 1.5
2017-Aug-19 17:29S 29°52' E 031°03'1 1.0
2017-Aug-19 15:58S 29°52' E 031°02'0 0.0
2017-Aug-19 15:28S 29°52' E 031°02'0 0.0
2017-Aug-19 14:58S 29°52' E 031°02'1 1.5
2017-Aug-19 13:59S 29°53' E 031°03'0 0.4
2017-Aug-19 13:30S 29°53' E 031°03'1 1.2
2017-Aug-19 13:00S 29°53' E 031°02'0 0.3
2017-Aug-19 12:30S 29°53' E 031°02'1 1.6
2017-Aug-19 11:59S 29°53' E 031°03'1 2.7
2017-Aug-19 11:30S 29°52' E 031°02'1 1.4
2017-Aug-19 10:59S 29°53' E 031°02'1 1.7
2017-Aug-19 10:29S 29°52' E 031°02'0 0.0
2017-Aug-19 09:59S 29°52' E 031°02'1 1.7
2017-Aug-19 09:30S 29°53' E 031°02'1 0.6
2017-Aug-19 08:30S 29°53' E 031°03'0 0.3
2017-Aug-19 07:59S 29°52' E 031°03'1 1.3
2017-Aug-19 07:30S 29°53' E 031°03'0 0.6
2017-Aug-19 06:56S 29°53' E 031°02'0 0.4
2017-Aug-19 06:28S 29°53' E 031°02'0 0.4
2017-Aug-19 06:01S 29°53' E 031°03'1 1.5
2017-Aug-19 05:29S 29°53' E 031°03'1 2.7
2017-Aug-19 04:56S 29°52' E 031°02'0 0.0
2017-Aug-19 04:20S 29°52' E 031°02'0 0.0
2017-Aug-19 03:50S 29°52' E 031°02'0 0.0
2017-Aug-19 03:26S 29°52' E 031°02'0 0.0
2017-Aug-19 02:59S 29°52' E 031°02'1 2.2
2017-Aug-19 02:30S 29°53' E 031°01'0 0.2
2017-Aug-19 01:59S 29°53' E 031°01'1 3.0
2017-Aug-19 01:30S 29°53' E 031°03'1 1.5
2017-Aug-19 00:47S 29°52' E 031°02'0 0.0
2017-Aug-19 00:23S 29°52' E 031°02'0 0.0
2017-Aug-18 23:53S 29°52' E 031°02'0 0.0
2017-Aug-18 23:20S 29°52' E 031°02'0 0.0
2017-Aug-18 22:56S 29°52' E 031°02'0 0.0
2017-Aug-18 22:14S 29°52' E 031°02'0 0.0
2017-Aug-18 21:56S 29°52' E 031°02'0 0.0
2017-Aug-18 21:29S 29°52' E 031°02'0 0.0
2017-Aug-18 20:38S 29°52' E 031°02'0 0.0
2017-Aug-18 19:56S 29°52' E 031°02'0 0.0
2017-Aug-18 19:29S 29°52' E 031°02'0 0.0
2017-Aug-18 18:53S 29°52' E 031°02'0 0.0
2017-Aug-18 18:29S 29°52' E 031°02'0 0.0
2017-Aug-18 17:59S 29°52' E 031°02'0 0.0
2017-Aug-18 17:29S 29°52' E 031°02'0 0.0
2017-Aug-18 16:59S 29°52' E 031°02'0 0.0
2017-Aug-18 16:26S 29°52' E 031°02'0 0.0
2017-Aug-18 15:59S 29°52' E 031°02'0 0.0
2017-Aug-18 15:26S 29°52' E 031°02'0 0.0
2017-Aug-18 14:59S 29°52' E 031°02'0 0.0
2017-Aug-18 13:59S 29°52' E 031°02'0 0.0
2017-Aug-18 13:29S 29°52' E 031°02'0 0.0
2017-Aug-18 12:59S 29°52' E 031°02'0 0.0
2017-Aug-18 12:29S 29°52' E 031°02'0 0.0
2017-Aug-18 11:56S 29°52' E 031°02'0 0.0
2017-Aug-18 11:29S 29°52' E 031°02'0 0.0
2017-Aug-18 10:59S 29°52' E 031°02'0 0.0
2017-Aug-18 10:29S 29°52' E 031°02'0 0.0
2017-Aug-18 09:50S 29°52' E 031°02'0 0.0
2017-Aug-18 09:29S 29°52' E 031°02'1 1.2
2017-Aug-18 08:59S 29°52' E 031°02'1 1.1
2017-Aug-18 08:27S 29°52' E 031°02'0 0.0
2017-Aug-18 08:00S 29°52' E 031°02'0 0.0
2017-Aug-18 07:30S 29°52' E 031°02'0 0.0
2017-Aug-18 07:00S 29°52' E 031°02'0 0.0
2017-Aug-18 06:30S 29°52' E 031°02'0 0.0
2017-Aug-18 05:57S 29°52' E 031°02'0 0.0
2017-Aug-18 05:30S 29°52' E 031°02'1 3.0
2017-Aug-18 05:00S 29°53' E 031°00'1 2.1
2017-Aug-18 04:30S 29°52' E 031°02'0 0.7
2017-Aug-18 03:58S 29°52' E 031°02'0 0.0
2017-Aug-18 03:22S 29°52' E 031°02'0 0.0
2017-Aug-18 02:58S 29°52' E 031°02'0 0.0
2017-Aug-18 02:28S 29°52' E 031°02'0 0.0
2017-Aug-18 01:19S 29°52' E 031°02'0 0.0
2017-Aug-18 00:58S 29°52' E 031°02'0 0.0
2017-Aug-18 00:19S 29°52' E 031°02'0 0.0
2017-Aug-17 23:58S 29°52' E 031°02'0 0.0
2017-Aug-17 23:28S 29°52' E 031°02'0 0.0
2017-Aug-17 22:49S 29°52' E 031°02'0 0.0
2017-Aug-17 22:28S 29°52' E 031°02'0 0.0
2017-Aug-17 21:55S 29°52' E 031°02'0 0.0
2017-Aug-17 21:28S 29°52' E 031°02'0 0.0
2017-Aug-17 20:58S 29°52' E 031°02'0 0.0
2017-Aug-17 20:28S 29°52' E 031°02'1 2.8
2017-Aug-17 19:59S 29°53' E 031°02'0 0.1
2017-Aug-17 19:25S 29°53' E 031°02'0 0.2
2017-Aug-17 19:00S 29°53' E 031°02'1 2.4
2017-Aug-17 18:31S 29°52' E 031°03'0 0.6
2017-Aug-17 18:01S 29°52' E 031°03'1 1.4
2017-Aug-17 17:29S 29°52' E 031°02'0 1.0
2017-Aug-17 16:58S 29°52' E 031°02'0 0.0
2017-Aug-17 16:28S 29°52' E 031°02'0 0.0
2017-Aug-17 15:58S 29°52' E 031°02'0 0.0
2017-Aug-17 15:25S 29°52' E 031°02'0 0.0
2017-Aug-17 14:58S 29°52' E 031°02'0 0.0
2017-Aug-17 14:25S 29°52' E 031°02'0 0.0
2017-Aug-17 13:58S 29°52' E 031°02'0 0.0
2017-Aug-17 13:28S 29°52' E 031°02'1 2.9
2017-Aug-17 12:58S 29°53' E 031°03'0 0.0
2017-Aug-17 12:27S 29°53' E 031°03'0 0.6
2017-Aug-17 11:57S 29°53' E 031°03'0 0.9
2017-Aug-17 11:30S 29°53' E 031°03'1 2.1
2017-Aug-17 10:57S 29°52' E 031°02'0 0.5
2017-Aug-17 10:30S 29°52' E 031°02'1 2.5
2017-Aug-17 10:00S 29°53' E 031°03'1 2.9
2017-Aug-17 09:30S 29°52' E 031°02'1 2.3
2017-Aug-17 08:58S 29°53' E 031°01'0 0.0
2017-Aug-17 08:28S 29°53' E 031°01'0 0.4
2017-Aug-17 07:59S 29°53' E 031°02'1 2.5
2017-Aug-17 07:30S 29°53' E 031°03'0 0.3
2017-Aug-17 06:58S 29°52' E 031°03'1 1.6
2017-Aug-17 06:30S 29°53' E 031°02'0 0.4
2017-Aug-17 06:00S 29°53' E 031°02'1 2.9
2017-Aug-17 05:30S 29°52' E 031°02'0 0.0
2017-Aug-17 05:00S 29°52' E 031°02'0 0.0
2017-Aug-17 04:30S 29°52' E 031°02'0 0.0
2017-Aug-17 04:00S 29°52' E 031°02'0 0.0
2017-Aug-17 03:30S 29°52' E 031°02'0 0.0
2017-Aug-17 03:00S 29°52' E 031°02'0 0.0
2017-Aug-17 02:30S 29°52' E 031°02'0 0.0
2017-Aug-17 01:57S 29°52' E 031°02'0 0.0
2017-Aug-17 01:30S 29°52' E 031°02'0 0.0
2017-Aug-17 01:00S 29°52' E 031°02'0 0.0
2017-Aug-17 00:21S 29°52' E 031°02'0 0.0
2017-Aug-16 23:57S 29°52' E 031°02'0 0.0
2017-Aug-16 23:30S 29°52' E 031°02'0 0.0
2017-Aug-16 23:00S 29°52' E 031°02'0 0.0
2017-Aug-16 22:30S 29°52' E 031°02'0 0.0
2017-Aug-16 21:57S 29°52' E 031°02'0 0.0
2017-Aug-16 21:30S 29°52' E 031°02'0 0.0
2017-Aug-16 21:00S 29°52' E 031°02'0 0.0
2017-Aug-16 20:30S 29°52' E 031°02'0 0.0
2017-Aug-16 19:54S 29°52' E 031°02'0 1.2
2017-Aug-16 19:30S 29°52' E 031°02'0 0.6
2017-Aug-16 18:54S 29°52' E 031°02'0 0.1
2017-Aug-16 18:30S 29°53' E 031°02'1 1.4
2017-Aug-16 18:00S 29°52' E 031°02'0 0.3
2017-Aug-16 17:30S 29°52' E 031°02'0 0.0
2017-Aug-16 17:00S 29°52' E 031°02'0 0.0
2017-Aug-16 16:27S 29°52' E 031°02'0 0.0
2017-Aug-16 16:00S 29°52' E 031°02'0 0.0
2017-Aug-16 15:30S 29°52' E 031°02'0 0.0
2017-Aug-16 14:57S 29°52' E 031°02'0 0.0
2017-Aug-16 14:30S 29°52' E 031°02'0 0.0
2017-Aug-16 14:00S 29°52' E 031°02'0 0.0
2017-Aug-16 13:30S 29°52' E 031°02'0 0.0
2017-Aug-16 13:00S 29°52' E 031°02'0 0.0
2017-Aug-16 12:30S 29°52' E 031°02'1 1.0
2017-Aug-16 11:58S 29°52' E 031°02'1 1.0
2017-Aug-16 11:25S 29°52' E 031°02'0 0.0
2017-Aug-16 10:55S 29°52' E 031°02'0 0.1
2017-Aug-16 10:30S 29°52' E 031°02'1 2.1
2017-Aug-16 10:00S 29°53' E 031°03'0 0.5
2017-Aug-16 09:30S 29°52' E 031°03'1 2.8
2017-Aug-16 09:00S 29°52' E 031°01'0 0.6
2017-Aug-16 08:22S 29°52' E 031°01'1 2.8
2017-Aug-16 08:00S 29°52' E 031°02'0 0.0
2017-Aug-16 06:51S 29°52' E 031°02'0 0.0
2017-Aug-16 06:30S 29°52' E 031°02'1 2.7
2017-Aug-16 06:00S 29°52' E 031°01'0 0.6
2017-Aug-16 05:30S 29°52' E 031°01'0 0.1
2017-Aug-16 04:44S 29°52' E 031°01'1 3.1
2017-Aug-16 04:22S 29°52' E 031°02'0 0.0
2017-Aug-16 03:55S 29°52' E 031°02'0 0.0
2017-Aug-16 03:22S 29°52' E 031°02'0 0.0
2017-Aug-16 02:58S 29°52' E 031°02'0 0.0
2017-Aug-16 02:28S 29°52' E 031°02'0 0.0
2017-Aug-16 01:58S 29°52' E 031°02'0 0.0
2017-Aug-16 01:28S 29°52' E 031°02'0 0.0
2017-Aug-16 00:55S 29°52' E 031°02'0 0.0
2017-Aug-16 00:22S 29°52' E 031°02'0 0.0
2017-Aug-15 23:58S 29°52' E 031°02'1 2.5
2017-Aug-15 23:30S 29°53' E 031°03'1 1.5
2017-Aug-15 23:00S 29°52' E 031°02'0 1.0
2017-Aug-15 22:30S 29°52' E 031°02'0 0.0
2017-Aug-15 21:57S 29°52' E 031°02'0 0.0
2017-Aug-15 21:30S 29°52' E 031°02'0 0.0
2017-Aug-15 21:00S 29°52' E 031°02'0 0.0
2017-Aug-15 20:30S 29°52' E 031°02'1 1.4
2017-Aug-15 20:00S 29°52' E 031°02'0 0.9
2017-Aug-15 19:30S 29°52' E 031°03'1 0.2
2017-Aug-15 12:59S 29°52' E 031°02'0 0.0
2017-Aug-15 12:29S 29°52' E 031°02'0 0.0
2017-Aug-15 11:59S 29°52' E 031°02'0 0.0
2017-Aug-15 11:23S 29°52' E 031°02'0 0.0
2017-Aug-15 10:56S 29°52' E 031°02'1 1.8
2017-Aug-15 10:30S 29°52' E 031°02'1 1.1
2017-Aug-15 09:51S 29°53' E 031°02'0 0.0
2017-Aug-15 09:30S 29°53' E 031°02'0 0.0
2017-Aug-15 09:00S 29°53' E 031°02'0 0.3
2017-Aug-15 08:31S 29°53' E 031°02'1 1.7
2017-Aug-15 07:57S 29°52' E 031°03'0 0.8
2017-Aug-15 07:30S 29°53' E 031°03'2 3.0
2017-Aug-15 07:00S 29°53' E 031°01'0 0.3
2017-Aug-15 06:27S 29°53' E 031°01'1 1.8
2017-Aug-15 05:59S 29°52' E 031°02'1 1.4
2017-Aug-15 05:30S 29°53' E 031°03'0 0.9
2017-Aug-15 05:00S 29°53' E 031°03'1 1.3
2017-Aug-15 03:52S 29°52' E 031°02'0 0.0
2017-Aug-15 03:25S 29°52' E 031°02'0 0.0
2017-Aug-15 02:49S 29°52' E 031°02'0 0.0
2017-Aug-15 02:25S 29°52' E 031°02'0 0.0
2017-Aug-15 01:55S 29°52' E 031°02'0 0.3
2017-Aug-15 01:30S 29°52' E 031°02'1 1.3
2017-Aug-15 00:59S 29°53' E 031°02'0 0.0
2017-Aug-14 00:38S 29°52' E 031°02'1 2.9
2017-Aug-14 00:24S 29°52' E 031°02'0 0.0
2017-Aug-14 00:00S 29°52' E 031°02'0 0.0
2017-Aug-13 23:30S 29°52' E 031°02'0 0.0
2017-Aug-13 23:00S 29°52' E 031°02'0 0.0
2017-Aug-13 22:30S 29°52' E 031°02'0 0.0
2017-Aug-13 21:57S 29°52' E 031°02'2 3.5
2017-Aug-13 21:26S 29°53' E 031°00'0 0.4
2017-Aug-13 20:56S 29°53' E 031°00'2 5.8
2017-Aug-13 20:30S 29°52' E 031°03'3 4.8
2017-Aug-13 19:59S 29°53' E 031°00'0 0.4
2017-Aug-13 19:30S 29°53' E 031°00'2 2.9
2017-Aug-13 18:53S 29°52' E 031°02'0 0.0
2017-Aug-13 18:29S 29°52' E 031°02'1 2.2
2017-Aug-13 18:00S 29°53' E 031°03'1 2.0
2017-Aug-13 17:28S 29°53' E 031°01'1 1.9
2017-Aug-13 17:00S 29°52' E 031°02'0 0.8
2017-Aug-13 16:29S 29°52' E 031°02'0 0.0
2017-Aug-13 15:59S 29°52' E 031°02'0 0.0
2017-Aug-13 15:29S 29°52' E 031°02'2 3.9
2017-Aug-13 14:59S 29°53' E 031°00'0 0.2
2017-Aug-13 14:30S 29°53' E 031°00'2 3.7
2017-Aug-13 14:00S 29°52' E 031°02'1 1.2
2017-Aug-13 13:30S 29°52' E 031°03'0 0.0
2017-Aug-13 13:00S 29°52' E 031°03'1 1.0
2017-Aug-13 12:30S 29°52' E 031°02'0 0.3
2017-Aug-13 11:58S 29°52' E 031°02'1 1.0
2017-Aug-13 11:28S 29°52' E 031°02'0 0.0
2017-Aug-13 10:58S 29°52' E 031°02'0 0.0
2017-Aug-13 10:28S 29°52' E 031°02'0 0.0
2017-Aug-13 09:52S 29°52' E 031°02'0 0.0
2017-Aug-13 09:28S 29°52' E 031°02'1 1.4
2017-Aug-13 09:01S 29°52' E 031°02'0 0.4
2017-Aug-13 08:30S 29°53' E 031°02'1 1.5
2017-Aug-13 07:57S 29°52' E 031°02'0 0.0
2017-Aug-13 07:30S 29°52' E 031°02'1 1.5
2017-Aug-13 07:00S 29°52' E 031°02'0 0.3
2017-Aug-13 06:30S 29°52' E 031°02'1 0.7
2017-Aug-13 05:37S 29°52' E 031°02'0 0.0
2017-Aug-13 05:25S 29°52' E 031°02'0 0.0
2017-Aug-13 04:13S 29°52' E 031°02'0 0.0
2017-Aug-13 03:55S 29°52' E 031°02'0 0.0
2017-Aug-13 03:22S 29°52' E 031°02'0 0.0
2017-Aug-13 02:58S 29°52' E 031°02'1 1.3
2017-Aug-13 02:30S 29°52' E 031°02'1 1.0
2017-Aug-13 01:58S 29°52' E 031°03'0 0.0
2017-Aug-13 01:28S 29°52' E 031°03'0 0.0
2017-Aug-13 00:58S 29°52' E 031°03'0 0.2
2017-Aug-13 00:23S 29°52' E 031°03'0 0.5
2017-Aug-13 00:00S 29°53' E 031°03'1 2.0
2017-Aug-12 23:30S 29°52' E 031°02'0 0.4
2017-Aug-12 23:00S 29°52' E 031°02'0 0.0
2017-Aug-12 22:30S 29°52' E 031°02'0 0.0
2017-Aug-12 21:48S 29°52' E 031°02'0 0.0
2017-Aug-12 21:27S 29°52' E 031°02'0 0.0
2017-Aug-12 21:00S 29°52' E 031°02'1 2.0
2017-Aug-12 20:30S 29°53' E 031°02'0 0.9
2017-Aug-12 20:00S 29°53' E 031°02'  
Track history (hours):
 
Tides and Currents Weather Stations Pressure Air Temp Water Temp Dewpoint Dewpoint Depression Visibility Wind Speed Wind Dir Waves Ship Positions

Lotheni

Last reported at 2017-Aug-22 19:59 UTC. Time now 2017-Aug-22 20:26 UTC.
Position S 29°52' E 031°01'.

Type: Tug. MMSI: 601135800.

Date/timePositionNaut miles runAvg speedWind from/ knotsBaromVisibWave heightAir tempDewpointWater temp
2017-Aug-22 19:59S 29°52' E 031°01'1 2.2
2017-Aug-22 19:30S 29°52' E 031°02'1 1.7
2017-Aug-22 18:58S 29°52' E 031°03'0 0.0
2017-Aug-22 18:28S 29°52' E 031°03'0 0.0
2017-Aug-22 18:00S 29°52' E 031°03'1 1.7
2017-Aug-22 17:28S 29°52' E 031°02'0 0.3
2017-Aug-22 16:58S 29°52' E 031°02'0 0.0
2017-Aug-22 16:28S 29°52' E 031°02'0 0.0
2017-Aug-22 15:58S 29°52' E 031°02'1 3.0
2017-Aug-22 15:30S 29°52' E 031°03'1 2.1
2017-Aug-22 14:51S 29°52' E 031°02'0 0.0
2017-Aug-22 14:30S 29°52' E 031°02'0 0.0
2017-Aug-22 13:03S 29°52' E 031°02'0 0.0
2017-Aug-22 13:00S 29°52' E 031°02'2 1.2
2017-Aug-22 11:27S 29°53' E 031°00'2 4.0
2017-Aug-22 10:59S 29°52' E 031°02'0 0.0
2017-Aug-22 10:29S 29°52' E 031°02'0 0.0
2017-Aug-22 09:59S 29°52' E 031°02'0 0.0
2017-Aug-22 09:29S 29°52' E 031°02'0 0.0
2017-Aug-22 08:59S 29°52' E 031°02'0 0.0
2017-Aug-22 08:29S 29°52' E 031°02'1 2.4
2017-Aug-22 08:00S 29°53' E 031°03'0 0.5
2017-Aug-22 07:30S 29°53' E 031°03'1 2.5
2017-Aug-22 06:58S 29°52' E 031°02'0 0.0
2017-Aug-22 06:28S 29°52' E 031°02'1 2.1
2017-Aug-22 05:59S 29°53' E 031°02'0 0.1
2017-Aug-22 05:31S 29°53' E 031°02'1 1.5
2017-Aug-22 04:51S 29°52' E 031°02'0 0.0
2017-Aug-22 04:30S 29°52' E 031°02'0 0.0
2017-Aug-22 03:03S 29°52' E 031°02'0 0.0
2017-Aug-22 02:48S 29°52' E 031°02'0 0.0
2017-Aug-22 02:18S 29°52' E 031°02'0 0.0
2017-Aug-22 01:57S 29°52' E 031°02'1 2.6
2017-Aug-22 01:25S 29°53' E 031°02'0 0.0
2017-Aug-22 00:55S 29°53' E 031°02'1 2.3
2017-Aug-22 00:19S 29°52' E 031°02'0 0.0
2017-Aug-21 23:49S 29°52' E 031°02'0 0.0
2017-Aug-21 23:13S 29°52' E 031°02'0 0.0
2017-Aug-21 22:55S 29°52' E 031°02'0 0.0
2017-Aug-21 22:28S 29°52' E 031°02'0 0.0
2017-Aug-21 21:58S 29°52' E 031°02'0 0.0
2017-Aug-21 21:01S 29°52' E 031°02'0 0.0
2017-Aug-21 20:51S 29°52' E 031°02'1 4.2
2017-Aug-21 20:30S 29°53' E 031°03'0 0.0
2017-Aug-21 19:58S 29°53' E 031°03'1 2.5
2017-Aug-21 19:30S 29°52' E 031°03'1 1.2
2017-Aug-21 18:57S 29°52' E 031°03'0 0.0
2017-Aug-21 18:27S 29°52' E 031°03'0 0.9
2017-Aug-21 18:00S 29°53' E 031°03'0 0.3
2017-Aug-21 17:30S 29°53' E 031°03'0 0.2
2017-Aug-21 17:00S 29°53' E 031°03'1 1.4
2017-Aug-21 16:04S 29°52' E 031°02'0 0.0
2017-Aug-21 15:52S 29°52' E 031°02'0 0.0
2017-Aug-21 15:07S 29°52' E 031°02'0 0.0
2017-Aug-21 14:49S 29°52' E 031°02'1 4.8
2017-Aug-21 14:30S 29°53' E 031°00'0 0.8
2017-Aug-21 13:59S 29°53' E 031°00'2 3.4
2017-Aug-21 13:30S 29°52' E 031°02'1 2.1
2017-Aug-21 13:00S 29°52' E 031°03'1 1.6
2017-Aug-21 12:30S 29°52' E 031°02'1 1.3
2017-Aug-21 11:52S 29°52' E 031°02'0 0.0
2017-Aug-21 11:22S 29°52' E 031°02'0 0.0
2017-Aug-21 10:55S 29°52' E 031°02'0 0.0
2017-Aug-21 10:30S 29°52' E 031°02'1 1.6
2017-Aug-21 10:00S 29°53' E 031°02'0 0.2
2017-Aug-21 09:30S 29°52' E 031°02'0 0.3
2017-Aug-21 08:59S 29°53' E 031°02'0 0.8
2017-Aug-21 08:30S 29°52' E 031°02'1 1.2
2017-Aug-21 07:54S 29°52' E 031°03'1 1.8
2017-Aug-21 07:30S 29°52' E 031°03'3 2.5
2017-Aug-21 06:18S 29°53' E 031°00'1 2.5
2017-Aug-21 05:58S 29°52' E 031°01'2 4.3
2017-Aug-21 05:30S 29°53' E 031°03'1 1.1
2017-Aug-21 04:17S 29°52' E 031°02'0 0.0
2017-Aug-21 03:53S 29°52' E 031°02'0 0.0
2017-Aug-21 03:26S 29°52' E 031°02'0 0.0
2017-Aug-21 02:44S 29°52' E 031°02'0 1.9
2017-Aug-21 02:30S 29°52' E 031°01'2 3.1
2017-Aug-21 01:56S 29°53' E 030°60'1 1.6
2017-Aug-21 01:29S 29°53' E 031°00'2 4.0
2017-Aug-21 00:58S 29°52' E 031°03'0 0.0
2017-Aug-21 00:22S 29°52' E 031°03'0 0.0
2017-Aug-20 23:58S 29°52' E 031°03'0 0.0
2017-Aug-20 23:28S 29°52' E 031°03'0 0.0
2017-Aug-20 22:58S 29°52' E 031°03'0 0.7
2017-Aug-20 22:29S 29°53' E 031°03'0 0.6
2017-Aug-20 21:58S 29°52' E 031°03'0 0.0
2017-Aug-20 21:28S 29°52' E 031°03'1 2.2
2017-Aug-20 21:00S 29°53' E 031°02'0 0.2
2017-Aug-20 20:30S 29°53' E 031°02'0 0.2
2017-Aug-20 19:59S 29°53' E 031°02'0 0.1
2017-Aug-20 19:30S 29°53' E 031°02'1 1.4
2017-Aug-20 18:54S 29°52' E 031°02'0 0.9
2017-Aug-20 18:30S 29°52' E 031°02'0 0.6
2017-Aug-20 18:00S 29°52' E 031°02'1 1.6
2017-Aug-20 17:30S 29°53' E 031°03'1 2.5
2017-Aug-20 16:59S 29°52' E 031°02'0 0.0
2017-Aug-20 15:26S 29°52' E 031°02'1 2.1
2017-Aug-20 14:58S 29°52' E 031°03'0 0.1
2017-Aug-20 14:28S 29°52' E 031°03'0 0.4
2017-Aug-20 14:00S 29°53' E 031°03'0 0.2
2017-Aug-20 13:28S 29°52' E 031°03'0 0.1
2017-Aug-20 13:00S 29°52' E 031°03'1 2.3
2017-Aug-20 12:30S 29°53' E 031°02'1 1.7
2017-Aug-20 12:00S 29°53' E 031°02'1 1.3
2017-Aug-20 11:30S 29°52' E 031°02'0 0.8
2017-Aug-20 10:58S 29°52' E 031°02'0 0.0
2017-Aug-20 10:28S 29°52' E 031°02'0 0.0
2017-Aug-20 09:58S 29°52' E 031°02'2 4.3
2017-Aug-20 09:29S 29°53' E 031°00'0 0.4
2017-Aug-20 08:59S 29°53' E 031°00'0 0.2
2017-Aug-20 08:10S 29°53' E 030°60'0 0.0
2017-Aug-20 07:58S 29°53' E 030°60'0 0.0
2017-Aug-20 07:30S 29°53' E 030°60'2 4.2
2017-Aug-20 06:59S 29°52' E 031°02'0 0.0
2017-Aug-20 06:29S 29°52' E 031°02'0 0.0
2017-Aug-20 05:59S 29°52' E 031°02'0 0.0
2017-Aug-20 05:29S 29°52' E 031°02'0 0.0
2017-Aug-20 04:59S 29°52' E 031°02'0 0.1
2017-Aug-20 04:27S 29°52' E 031°02'0 0.0
2017-Aug-20 04:00S 29°52' E 031°02'0 0.0
2017-Aug-20 03:21S 29°52' E 031°02'1 1.5
2017-Aug-20 03:00S 29°52' E 031°02'0 0.9
2017-Aug-20 02:30S 29°53' E 031°01'0 0.1
2017-Aug-20 01:59S 29°53' E 031°01'0 0.0
2017-Aug-20 01:30S 29°53' E 031°01'0 1.0
2017-Aug-20 01:00S 29°52' E 031°02'1 0.3
2017-Aug-19 23:32S 29°52' E 031°02'0 0.0
2017-Aug-19 23:20S 29°52' E 031°02'0 0.0
2017-Aug-19 22:56S 29°52' E 031°02'0 0.0
2017-Aug-19 19:23S 29°52' E 031°02'0 0.0
2017-Aug-19 18:56S 29°52' E 031°02'0 0.0
2017-Aug-19 18:29S 29°52' E 031°02'1 2.8
2017-Aug-19 17:58S 29°53' E 031°03'1 1.5
2017-Aug-19 17:29S 29°52' E 031°03'1 1.0
2017-Aug-19 15:58S 29°52' E 031°02'0 0.0
2017-Aug-19 15:28S 29°52' E 031°02'0 0.0
2017-Aug-19 14:58S 29°52' E 031°02'1 1.5
2017-Aug-19 13:59S 29°53' E 031°03'0 0.4
2017-Aug-19 13:30S 29°53' E 031°03'1 1.2
2017-Aug-19 13:00S 29°53' E 031°02'0 0.3
2017-Aug-19 12:30S 29°53' E 031°02'1 1.6
2017-Aug-19 11:59S 29°53' E 031°03'1 2.7
2017-Aug-19 11:30S 29°52' E 031°02'1 1.4
2017-Aug-19 10:59S 29°53' E 031°02'1 1.7
2017-Aug-19 10:29S 29°52' E 031°02'0 0.0
2017-Aug-19 09:59S 29°52' E 031°02'1 1.7
2017-Aug-19 09:30S 29°53' E 031°02'1 0.6
2017-Aug-19 08:30S 29°53' E 031°03'0 0.3
2017-Aug-19 07:59S 29°52' E 031°03'1 1.3
2017-Aug-19 07:30S 29°53' E 031°03'0 0.6
2017-Aug-19 06:56S 29°53' E 031°02'0 0.4
2017-Aug-19 06:28S 29°53' E 031°02'0 0.4
2017-Aug-19 06:01S 29°53' E 031°03'1 1.5
2017-Aug-19 05:29S 29°53' E 031°03'1 2.7
2017-Aug-19 04:56S 29°52' E 031°02'0 0.0
2017-Aug-19 04:20S 29°52' E 031°02'0 0.0
2017-Aug-19 03:50S 29°52' E 031°02'0 0.0
2017-Aug-19 03:26S 29°52' E 031°02'0 0.0
2017-Aug-19 02:59S 29°52' E 031°02'1 2.2
2017-Aug-19 02:30S 29°53' E 031°01'0 0.2
2017-Aug-19 01:59S 29°53' E 031°01'1 3.0
2017-Aug-19 01:30S 29°53' E 031°03'1 1.5
2017-Aug-19 00:47S 29°52' E 031°02'0 0.0
2017-Aug-19 00:23S 29°52' E 031°02'0 0.0
2017-Aug-18 23:53S 29°52' E 031°02'0 0.0
2017-Aug-18 23:20S 29°52' E 031°02'0 0.0
2017-Aug-18 22:56S 29°52' E 031°02'0 0.0
2017-Aug-18 22:14S 29°52' E 031°02'0 0.0
2017-Aug-18 21:56S 29°52' E 031°02'0 0.0
2017-Aug-18 21:29S 29°52' E 031°02'0 0.0
2017-Aug-18 20:38S 29°52' E 031°02'0 0.0
2017-Aug-18 19:56S 29°52' E 031°02'0 0.0
2017-Aug-18 19:29S 29°52' E 031°02'0 0.0
2017-Aug-18 18:53S 29°52' E 031°02'0 0.0
2017-Aug-18 18:29S 29°52' E 031°02'0 0.0
2017-Aug-18 17:59S 29°52' E 031°02'0 0.0
2017-Aug-18 17:29S 29°52' E 031°02'0 0.0
2017-Aug-18 16:59S 29°52' E 031°02'0 0.0
2017-Aug-18 16:26S 29°52' E 031°02'0 0.0
2017-Aug-18 15:59S 29°52' E 031°02'0 0.0
2017-Aug-18 15:26S 29°52' E 031°02'0 0.0
2017-Aug-18 14:59S 29°52' E 031°02'0 0.0
2017-Aug-18 13:59S 29°52' E 031°02'0 0.0
2017-Aug-18 13:29S 29°52' E 031°02'0 0.0
2017-Aug-18 12:59S 29°52' E 031°02'0 0.0
2017-Aug-18 12:29S 29°52' E 031°02'0 0.0
2017-Aug-18 11:56S 29°52' E 031°02'0 0.0
2017-Aug-18 11:29S 29°52' E 031°02'0 0.0
2017-Aug-18 10:59S 29°52' E 031°02'0 0.0
2017-Aug-18 10:29S 29°52' E 031°02'0 0.0
2017-Aug-18 09:50S 29°52' E 031°02'0 0.0
2017-Aug-18 09:29S 29°52' E 031°02'1 1.2
2017-Aug-18 08:59S 29°52' E 031°02'1 1.1
2017-Aug-18 08:27S 29°52' E 031°02'0 0.0
2017-Aug-18 08:00S 29°52' E 031°02'0 0.0
2017-Aug-18 07:30S 29°52' E 031°02'0 0.0
2017-Aug-18 07:00S 29°52' E 031°02'0 0.0
2017-Aug-18 06:30S 29°52' E 031°02'0 0.0
2017-Aug-18 05:57S 29°52' E 031°02'0 0.0
2017-Aug-18 05:30S 29°52' E 031°02'1 3.0
2017-Aug-18 05:00S 29°53' E 031°00'1 2.1
2017-Aug-18 04:30S 29°52' E 031°02'0 0.7
2017-Aug-18 03:58S 29°52' E 031°02'0 0.0
2017-Aug-18 03:22S 29°52' E 031°02'0 0.0
2017-Aug-18 02:58S 29°52' E 031°02'0 0.0
2017-Aug-18 02:28S 29°52' E 031°02'0 0.0
2017-Aug-18 01:19S 29°52' E 031°02'0 0.0
2017-Aug-18 00:58S 29°52' E 031°02'0 0.0
2017-Aug-18 00:19S 29°52' E 031°02'0 0.0
2017-Aug-17 23:58S 29°52' E 031°02'0 0.0
2017-Aug-17 23:28S 29°52' E 031°02'0 0.0
2017-Aug-17 22:49S 29°52' E 031°02'0 0.0
2017-Aug-17 22:28S 29°52' E 031°02'0 0.0
2017-Aug-17 21:55S 29°52' E 031°02'0 0.0
2017-Aug-17 21:28S 29°52' E 031°02'0 0.0
2017-Aug-17 20:58S 29°52' E 031°02'0 0.0
2017-Aug-17 20:28S 29°52' E 031°02'1 2.8
2017-Aug-17 19:59S 29°53' E 031°02'0 0.1
2017-Aug-17 19:25S 29°53' E 031°02'0 0.2
2017-Aug-17 19:00S 29°53' E 031°02'1 2.4
2017-Aug-17 18:31S 29°52' E 031°03'0 0.6
2017-Aug-17 18:01S 29°52' E 031°03'1 1.4
2017-Aug-17 17:29S 29°52' E 031°02'0 1.0
2017-Aug-17 16:58S 29°52' E 031°02'0 0.0
2017-Aug-17 16:28S 29°52' E 031°02'0 0.0
2017-Aug-17 15:58S 29°52' E 031°02'0 0.0
2017-Aug-17 15:25S 29°52' E 031°02'0 0.0
2017-Aug-17 14:58S 29°52' E 031°02'0 0.0
2017-Aug-17 14:25S 29°52' E 031°02'0 0.0
2017-Aug-17 13:58S 29°52' E 031°02'0 0.0
2017-Aug-17 13:28S 29°52' E 031°02'1 2.9
2017-Aug-17 12:58S 29°53' E 031°03'0 0.0
2017-Aug-17 12:27S 29°53' E 031°03'0 0.6
2017-Aug-17 11:57S 29°53' E 031°03'0 0.9
2017-Aug-17 11:30S 29°53' E 031°03'1 2.1
2017-Aug-17 10:57S 29°52' E 031°02'0 0.5
2017-Aug-17 10:30S 29°52' E 031°02'1 2.5
2017-Aug-17 10:00S 29°53' E 031°03'1 2.9
2017-Aug-17 09:30S 29°52' E 031°02'1 2.3
2017-Aug-17 08:58S 29°53' E 031°01'0 0.0
2017-Aug-17 08:28S 29°53' E 031°01'0 0.4
2017-Aug-17 07:59S 29°53' E 031°02'1 2.5
2017-Aug-17 07:30S 29°53' E 031°03'0 0.3
2017-Aug-17 06:58S 29°52' E 031°03'1 1.6
2017-Aug-17 06:30S 29°53' E 031°02'0 0.4
2017-Aug-17 06:00S 29°53' E 031°02'1 2.9
2017-Aug-17 05:30S 29°52' E 031°02'0 0.0
2017-Aug-17 05:00S 29°52' E 031°02'0 0.0
2017-Aug-17 04:30S 29°52' E 031°02'0 0.0
2017-Aug-17 04:00S 29°52' E 031°02'0 0.0
2017-Aug-17 03:30S 29°52' E 031°02'0 0.0
2017-Aug-17 03:00S 29°52' E 031°02'0 0.0
2017-Aug-17 02:30S 29°52' E 031°02'0 0.0
2017-Aug-17 01:57S 29°52' E 031°02'0 0.0
2017-Aug-17 01:30S 29°52' E 031°02'0 0.0
2017-Aug-17 01:00S 29°52' E 031°02'0 0.0
2017-Aug-17 00:21S 29°52' E 031°02'0 0.0
2017-Aug-16 23:57S 29°52' E 031°02'0 0.0
2017-Aug-16 23:30S 29°52' E 031°02'0 0.0
2017-Aug-16 23:00S 29°52' E 031°02'0 0.0
2017-Aug-16 22:30S 29°52' E 031°02'0 0.0
2017-Aug-16 21:57S 29°52' E 031°02'0 0.0
2017-Aug-16 21:30S 29°52' E 031°02'0 0.0
2017-Aug-16 21:00S 29°52' E 031°02'0 0.0
2017-Aug-16 20:30S 29°52' E 031°02'0 0.0
2017-Aug-16 19:54S 29°52' E 031°02'0 1.2
2017-Aug-16 19:30S 29°52' E 031°02'0 0.6
2017-Aug-16 18:54S 29°52' E 031°02'0 0.1
2017-Aug-16 18:30S 29°53' E 031°02'1 1.4
2017-Aug-16 18:00S 29°52' E 031°02'0 0.3
2017-Aug-16 17:30S 29°52' E 031°02'0 0.0
2017-Aug-16 17:00S 29°52' E 031°02'0 0.0
2017-Aug-16 16:27S 29°52' E 031°02'0 0.0
2017-Aug-16 16:00S 29°52' E 031°02'0 0.0
2017-Aug-16 15:30S 29°52' E 031°02'0 0.0
2017-Aug-16 14:57S 29°52' E 031°02'0 0.0
2017-Aug-16 14:30S 29°52' E 031°02'0 0.0
2017-Aug-16 14:00S 29°52' E 031°02'0 0.0
2017-Aug-16 13:30S 29°52' E 031°02'0 0.0
2017-Aug-16 13:00S 29°52' E 031°02'0 0.0
2017-Aug-16 12:30S 29°52' E 031°02'1 1.0
2017-Aug-16 11:58S 29°52' E 031°02'1 1.0
2017-Aug-16 11:25S 29°52' E 031°02'0 0.0
2017-Aug-16 10:55S 29°52' E 031°02'0 0.1
2017-Aug-16 10:30S 29°52' E 031°02'1 2.1
2017-Aug-16 10:00S 29°53' E 031°03'0 0.5
2017-Aug-16 09:30S 29°52' E 031°03'1 2.8
2017-Aug-16 09:00S 29°52' E 031°01'0 0.6
2017-Aug-16 08:22S 29°52' E 031°01'1 2.8
2017-Aug-16 08:00S 29°52' E 031°02'0 0.0
2017-Aug-16 06:51S 29°52' E 031°02'0 0.0
2017-Aug-16 06:30S 29°52' E 031°02'1 2.7
2017-Aug-16 06:00S 29°52' E 031°01'0 0.6
2017-Aug-16 05:30S 29°52' E 031°01'0 0.1
2017-Aug-16 04:44S 29°52' E 031°01'1 3.1
2017-Aug-16 04:22S 29°52' E 031°02'0 0.0
2017-Aug-16 03:55S 29°52' E 031°02'0 0.0
2017-Aug-16 03:22S 29°52' E 031°02'0 0.0
2017-Aug-16 02:58S 29°52' E 031°02'0 0.0
2017-Aug-16 02:28S 29°52' E 031°02'0 0.0
2017-Aug-16 01:58S 29°52' E 031°02'0 0.0
2017-Aug-16 01:28S 29°52' E 031°02'0 0.0
2017-Aug-16 00:55S 29°52' E 031°02'0 0.0
2017-Aug-16 00:22S 29°52' E 031°02'0 0.0
2017-Aug-15 23:58S 29°52' E 031°02'1 2.5
2017-Aug-15 23:30S 29°53' E 031°03'1 1.5
2017-Aug-15 23:00S 29°52' E 031°02'0 1.0
2017-Aug-15 22:30S 29°52' E 031°02'0 0.0
2017-Aug-15 21:57S 29°52' E 031°02'0 0.0
2017-Aug-15 21:30S 29°52' E 031°02'0 0.0
2017-Aug-15 21:00S 29°52' E 031°02'0 0.0
2017-Aug-15 20:30S 29°52' E 031°02'1 1.4
2017-Aug-15 20:00S 29°52' E 031°02'0 0.9
2017-Aug-15 19:30S 29°52' E 031°03'1 0.2
2017-Aug-15 12:59S 29°52' E 031°02'0 0.0
2017-Aug-15 12:29S 29°52' E 031°02'0 0.0
2017-Aug-15 11:59S 29°52' E 031°02'0 0.0
2017-Aug-15 11:23S 29°52' E 031°02'0 0.0
2017-Aug-15 10:56S 29°52' E 031°02'1 1.8
2017-Aug-15 10:30S 29°52' E 031°02'1 1.1
2017-Aug-15 09:51S 29°53' E 031°02'0 0.0
2017-Aug-15 09:30S 29°53' E 031°02'0 0.0
2017-Aug-15 09:00S 29°53' E 031°02'0 0.3
2017-Aug-15 08:31S 29°53' E 031°02'1 1.7
2017-Aug-15 07:57S 29°52' E 031°03'0 0.8
2017-Aug-15 07:30S 29°53' E 031°03'2 3.0
2017-Aug-15 07:00S 29°53' E 031°01'0 0.3
2017-Aug-15 06:27S 29°53' E 031°01'1 1.8
2017-Aug-15 05:59S 29°52' E 031°02'1 1.4
2017-Aug-15 05:30S 29°53' E 031°03'0 0.9
2017-Aug-15 05:00S 29°53' E 031°03'1 1.3
2017-Aug-15 03:52S 29°52' E 031°02'0 0.0
2017-Aug-15 03:25S 29°52' E 031°02'0 0.0
2017-Aug-15 02:49S 29°52' E 031°02'0 0.0
2017-Aug-15 02:25S 29°52' E 031°02'0 0.0
2017-Aug-15 01:55S 29°52' E 031°02'0 0.3
2017-Aug-15 01:30S 29°52' E 031°02'1 1.3
2017-Aug-15 00:59S 29°53' E 031°02'0 0.0
2017-Aug-14 00:38S 29°52' E 031°02'1 2.9
2017-Aug-14 00:24S 29°52' E 031°02'0 0.0
2017-Aug-14 00:00S 29°52' E 031°02'0 0.0
2017-Aug-13 23:30S 29°52' E 031°02'0 0.0
2017-Aug-13 23:00S 29°52' E 031°02'0 0.0
2017-Aug-13 22:30S 29°52' E 031°02'0 0.0
2017-Aug-13 21:57S 29°52' E 031°02'2 3.5
2017-Aug-13 21:26S 29°53' E 031°00'0 0.4
2017-Aug-13 20:56S 29°53' E 031°00'2 5.8
2017-Aug-13 20:30S 29°52' E 031°03'3 4.8
2017-Aug-13 19:59S 29°53' E 031°00'0 0.4
2017-Aug-13 19:30S 29°53' E 031°00'2 2.9
2017-Aug-13 18:53S 29°52' E 031°02'0 0.0
2017-Aug-13 18:29S 29°52' E 031°02'1 2.2
2017-Aug-13 18:00S 29°53' E 031°03'1 2.0
2017-Aug-13 17:28S 29°53' E 031°01'1 1.9
2017-Aug-13 17:00S 29°52' E 031°02'0 0.8
2017-Aug-13 16:29S 29°52' E 031°02'0 0.0
2017-Aug-13 15:59S 29°52' E 031°02'0 0.0
2017-Aug-13 15:29S 29°52' E 031°02'2 3.9
2017-Aug-13 14:59S 29°53' E 031°00'0 0.2
2017-Aug-13 14:30S 29°53' E 031°00'2 3.7
2017-Aug-13 14:00S 29°52' E 031°02'1 1.2
2017-Aug-13 13:30S 29°52' E 031°03'0 0.0
2017-Aug-13 13:00S 29°52' E 031°03'1 1.0
2017-Aug-13 12:30S 29°52' E 031°02'0 0.3
2017-Aug-13 11:58S 29°52' E 031°02'1 1.0
2017-Aug-13 11:28S 29°52' E 031°02'0 0.0
2017-Aug-13 10:58S 29°52' E 031°02'0 0.0
2017-Aug-13 10:28S 29°52' E 031°02'0 0.0
2017-Aug-13 09:52S 29°52' E 031°02'0 0.0
2017-Aug-13 09:28S 29°52' E 031°02'1 1.4
2017-Aug-13 09:01S 29°52' E 031°02'0 0.4
2017-Aug-13 08:30S 29°53' E 031°02'1 1.5
2017-Aug-13 07:57S 29°52' E 031°02'0 0.0
2017-Aug-13 07:30S 29°52' E 031°02'1 1.5
2017-Aug-13 07:00S 29°52' E 031°02'0 0.3
2017-Aug-13 06:30S 29°52' E 031°02'1 0.7
2017-Aug-13 05:37S 29°52' E 031°02'0 0.0
2017-Aug-13 05:25S 29°52' E 031°02'0 0.0
2017-Aug-13 04:13S 29°52' E 031°02'0 0.0
2017-Aug-13 03:55S 29°52' E 031°02'0 0.0
2017-Aug-13 03:22S 29°52' E 031°02'0 0.0
2017-Aug-13 02:58S 29°52' E 031°02'1 1.3
2017-Aug-13 02:30S 29°52' E 031°02'1 1.0
2017-Aug-13 01:58S 29°52' E 031°03'0 0.0
2017-Aug-13 01:28S 29°52' E 031°03'0 0.0
2017-Aug-13 00:58S 29°52' E 031°03'0 0.2
2017-Aug-13 00:23S 29°52' E 031°03'0 0.5
2017-Aug-13 00:00S 29°53' E 031°03'1 2.0
2017-Aug-12 23:30S 29°52' E 031°02'0 0.4
2017-Aug-12 23:00S 29°52' E 031°02'0 0.0
2017-Aug-12 22:30S 29°52' E 031°02'0 0.0
2017-Aug-12 21:48S 29°52' E 031°02'0 0.0
2017-Aug-12 21:27S 29°52' E 031°02'0 0.0
2017-Aug-12 21:00S 29°52' E 031°02'1 2.0
2017-Aug-12 20:30S 29°53' E 031°02'0 0.9
2017-Aug-12 20:00S 29°53' E 031°02'  

Dump ship's entire track history